sensor_id;sensor_type;location;lat;lon;timestamp;pressure;altitude;pressure_sealevel;temperature;humidity
72370;BME280;60343;-32.030;115.880;2022-08-11T00:01:23;102875.72;;;9.00;89.40
72370;BME280;60343;-32.030;115.880;2022-08-11T00:03:54;102880.09;;;9.14;89.73
72370;BME280;60343;-32.030;115.880;2022-08-11T00:06:28;102880.25;;;9.47;89.04
72370;BME280;60343;-32.030;115.880;2022-08-11T00:08:58;102889.44;;;10.02;88.29
72370;BME280;60343;-32.030;115.880;2022-08-11T00:11:40;102897.47;;;10.48;87.48
72370;BME280;60343;-32.030;115.880;2022-08-11T00:14:14;102893.00;;;10.71;87.15
72370;BME280;60343;-32.030;115.880;2022-08-11T00:16:43;102891.50;;;10.78;84.94
72370;BME280;60343;-32.030;115.880;2022-08-11T00:19:21;102901.00;;;10.82;85.62
72370;BME280;60343;-32.030;115.880;2022-08-11T00:21:50;102905.28;;;10.85;85.92
72370;BME280;60343;-32.030;115.880;2022-08-11T00:24:19;102900.41;;;10.79;85.88
72370;BME280;60343;-32.030;115.880;2022-08-11T00:26:54;102910.03;;;10.81;85.88
72370;BME280;60343;-32.030;115.880;2022-08-11T00:29:22;102905.75;;;10.90;86.46
72370;BME280;60343;-32.030;115.880;2022-08-11T00:31:51;102906.84;;;11.09;85.87
72370;BME280;60343;-32.030;115.880;2022-08-11T00:34:22;102912.28;;;11.30;85.31
72370;BME280;60343;-32.030;115.880;2022-08-11T00:36:53;102906.97;;;11.51;85.20
72370;BME280;60343;-32.030;115.880;2022-08-11T00:39:22;102923.75;;;11.75;82.42
72370;BME280;60343;-32.030;115.880;2022-08-11T00:42:09;102915.38;;;11.89;81.23
72370;BME280;60343;-32.030;115.880;2022-08-11T00:44:54;102910.03;;;12.10;80.42
72370;BME280;60343;-32.030;115.880;2022-08-11T00:47:43;102910.63;;;12.65;78.45
72370;BME280;60343;-32.030;115.880;2022-08-11T00:50:21;102915.13;;;13.44;74.77
72370;BME280;60343;-32.030;115.880;2022-08-11T00:53:06;102914.44;;;14.00;71.76
72370;BME280;60343;-32.030;115.880;2022-08-11T00:59:22;102912.81;;;14.92;70.04
72370;BME280;60343;-32.030;115.880;2022-08-11T01:02:14;102907.78;;;15.24;68.21
72370;BME280;60343;-32.030;115.880;2022-08-11T01:10:53;102922.75;;;16.43;65.27
72370;BME280;60343;-32.030;115.880;2022-08-11T01:13:32;102917.84;;;16.64;63.98
72370;BME280;60343;-32.030;115.880;2022-08-11T01:37:51;102901.56;;;18.37;58.20
72370;BME280;60343;-32.030;115.880;2022-08-11T01:40:51;102902.31;;;18.15;57.36
72370;BME280;60343;-32.030;115.880;2022-08-11T01:43:54;102905.69;;;17.68;59.67
72370;BME280;60343;-32.030;115.880;2022-08-11T01:46:33;102893.81;;;18.34;59.22
72370;BME280;60343;-32.030;115.880;2022-08-11T01:49:12;102898.50;;;18.56;58.45
72370;BME280;60343;-32.030;115.880;2022-08-11T01:51:57;102891.81;;;18.91;57.83
72370;BME280;60343;-32.030;115.880;2022-08-11T01:54:40;102898.28;;;19.13;56.68
72370;BME280;60343;-32.030;115.880;2022-08-11T01:57:18;102894.19;;;19.17;56.87
72370;BME280;60343;-32.030;115.880;2022-08-11T01:59:50;102890.75;;;19.31;56.67
72370;BME280;60343;-32.030;115.880;2022-08-11T02:02:30;102890.00;;;19.45;56.43
72370;BME280;60343;-32.030;115.880;2022-08-11T02:05:06;102897.19;;;19.61;54.49
72370;BME280;60343;-32.030;115.880;2022-08-11T02:07:53;102884.69;;;19.44;53.67
72370;BME280;60343;-32.030;115.880;2022-08-11T02:10:32;102884.00;;;19.19;55.57
72370;BME280;60343;-32.030;115.880;2022-08-11T02:13:11;102883.69;;;19.67;53.93
72370;BME280;60343;-32.030;115.880;2022-08-11T02:15:45;102880.13;;;19.90;52.02
72370;BME280;60343;-32.030;115.880;2022-08-11T02:18:22;102880.03;;;20.21;51.32
72370;BME280;60343;-32.030;115.880;2022-08-11T02:20:54;102872.19;;;20.40;51.62
72370;BME280;60343;-32.030;115.880;2022-08-11T02:23:26;102872.94;;;20.64;50.50
72370;BME280;60343;-32.030;115.880;2022-08-11T02:26:04;102870.84;;;20.80;48.64
72370;BME280;60343;-32.030;115.880;2022-08-11T02:28:50;102871.22;;;20.92;49.23
72370;BME280;60343;-32.030;115.880;2022-08-11T02:31:26;102861.28;;;20.70;48.95
72370;BME280;60343;-32.030;115.880;2022-08-11T02:34:03;102858.66;;;20.32;49.62
72370;BME280;60343;-32.030;115.880;2022-08-11T02:36:37;102862.91;;;20.49;50.90
72370;BME280;60343;-32.030;115.880;2022-08-11T02:39:12;102852.47;;;20.53;50.13
72370;BME280;60343;-32.030;115.880;2022-08-11T02:41:51;102848.09;;;20.52;49.72
72370;BME280;60343;-32.030;115.880;2022-08-11T02:44:31;102834.09;;;20.40;50.26
72370;BME280;60343;-32.030;115.880;2022-08-11T02:47:07;102848.56;;;20.41;48.69
72370;BME280;60343;-32.030;115.880;2022-08-11T02:49:46;102840.75;;;20.52;49.66
72370;BME280;60343;-32.030;115.880;2022-08-11T02:52:23;102838.97;;;20.60;48.21
72370;BME280;60343;-32.030;115.880;2022-08-11T02:55:03;102831.47;;;20.62;48.74
72370;BME280;60343;-32.030;115.880;2022-08-11T02:57:42;102828.38;;;20.35;48.40
72370;BME280;60343;-32.030;115.880;2022-08-11T03:00:15;102825.34;;;20.30;48.09
72370;BME280;60343;-32.030;115.880;2022-08-11T03:02:51;102832.66;;;20.30;48.50
72370;BME280;60343;-32.030;115.880;2022-08-11T03:05:32;102832.44;;;20.02;49.42
72370;BME280;60343;-32.030;115.880;2022-08-11T03:08:14;102830.38;;;20.19;48.97
72370;BME280;60343;-32.030;115.880;2022-08-11T03:10:53;102822.91;;;20.21;50.34
72370;BME280;60343;-32.030;115.880;2022-08-11T03:13:30;102829.56;;;20.47;48.51
72370;BME280;60343;-32.030;115.880;2022-08-11T03:16:13;102820.03;;;20.37;48.36
72370;BME280;60343;-32.030;115.880;2022-08-11T03:18:52;102810.44;;;20.11;48.44
72370;BME280;60343;-32.030;115.880;2022-08-11T03:21:25;102808.53;;;20.12;49.48
72370;BME280;60343;-32.030;115.880;2022-08-11T03:24:01;102809.47;;;19.90;48.36
72370;BME280;60343;-32.030;115.880;2022-08-11T03:26:34;102802.88;;;19.47;50.05
72370;BME280;60343;-32.030;115.880;2022-08-11T03:29:18;102791.28;;;19.90;50.48
72370;BME280;60343;-32.030;115.880;2022-08-11T03:31:54;102790.56;;;20.40;49.51
72370;BME280;60343;-32.030;115.880;2022-08-11T03:34:26;102784.09;;;20.92;47.55
72370;BME280;60343;-32.030;115.880;2022-08-11T03:37:09;102775.63;;;21.23;45.38
72370;BME280;60343;-32.030;115.880;2022-08-11T03:39:54;102781.66;;;21.39;46.21
72370;BME280;60343;-32.030;115.880;2022-08-11T03:42:29;102775.09;;;21.83;43.51
72370;BME280;60343;-32.030;115.880;2022-08-11T03:45:12;102762.88;;;22.00;44.48
72370;BME280;60343;-32.030;115.880;2022-08-11T03:48:04;102772.81;;;22.14;43.68
72370;BME280;60343;-32.030;115.880;2022-08-11T03:50:56;102753.78;;;22.21;44.35
72370;BME280;60343;-32.030;115.880;2022-08-11T03:53:54;102749.19;;;22.28;44.80
72370;BME280;60343;-32.030;115.880;2022-08-11T04:06:00;102724.97;;;21.28;47.17
72370;BME280;60343;-32.030;115.880;2022-08-11T04:11:56;102715.63;;;21.37;44.43
72370;BME280;60343;-32.030;115.880;2022-08-11T04:14:43;102700.50;;;21.35;44.08
72370;BME280;60343;-32.030;115.880;2022-08-11T04:17:49;102701.25;;;21.50;45.54
72370;BME280;60343;-32.030;115.880;2022-08-11T04:20:41;102700.03;;;21.53;43.29
72370;BME280;60343;-32.030;115.880;2022-08-11T04:23:26;102694.63;;;21.10;43.67
72370;BME280;60343;-32.030;115.880;2022-08-11T04:26:34;102690.59;;;20.85;45.73
72370;BME280;60343;-32.030;115.880;2022-08-11T04:29:23;102689.28;;;20.60;45.73
72370;BME280;60343;-32.030;115.880;2022-08-11T04:32:08;102681.38;;;20.65;45.04
72370;BME280;60343;-32.030;115.880;2022-08-11T04:34:48;102670.25;;;20.81;44.13
72370;BME280;60343;-32.030;115.880;2022-08-11T04:37:44;102653.34;;;20.85;43.79
72370;BME280;60343;-32.030;115.880;2022-08-11T04:46:41;102628.63;;;21.36;42.95
72370;BME280;60343;-32.030;115.880;2022-08-11T04:49:53;102621.00;;;21.25;44.09
72370;BME280;60343;-32.030;115.880;2022-08-11T04:52:44;102629.00;;;21.33;42.45
72370;BME280;60343;-32.030;115.880;2022-08-11T04:58:32;102615.25;;;21.41;43.53
72370;BME280;60343;-32.030;115.880;2022-08-11T05:01:19;102607.94;;;21.48;43.29
72370;BME280;60343;-32.030;115.880;2022-08-11T05:10:17;102580.56;;;21.97;42.29
72370;BME280;60343;-32.030;115.880;2022-08-11T05:12:50;102582.22;;;21.98;43.03
72370;BME280;60343;-32.030;115.880;2022-08-11T05:15:29;102574.25;;;21.97;42.71
72370;BME280;60343;-32.030;115.880;2022-08-11T05:18:09;102576.16;;;22.03;42.09
72370;BME280;60343;-32.030;115.880;2022-08-11T05:20:47;102570.53;;;22.24;42.65
72370;BME280;60343;-32.030;115.880;2022-08-11T05:23:17;102556.97;;;22.57;41.23
72370;BME280;60343;-32.030;115.880;2022-08-11T05:25:48;102560.53;;;22.51;40.57
72370;BME280;60343;-32.030;115.880;2022-08-11T05:28:30;102551.06;;;22.47;40.46
72370;BME280;60343;-32.030;115.880;2022-08-11T05:31:06;102544.13;;;22.64;39.59
72370;BME280;60343;-32.030;115.880;2022-08-11T05:33:44;102544.16;;;22.57;38.52
72370;BME280;60343;-32.030;115.880;2022-08-11T05:36:20;102543.94;;;22.52;38.90
72370;BME280;60343;-32.030;115.880;2022-08-11T05:38:56;102547.06;;;22.69;39.98
72370;BME280;60343;-32.030;115.880;2022-08-11T05:41:27;102542.69;;;22.94;40.37
72370;BME280;60343;-32.030;115.880;2022-08-11T05:43:58;102542.91;;;22.93;38.52
72370;BME280;60343;-32.030;115.880;2022-08-11T05:46:39;102537.66;;;22.91;38.96
72370;BME280;60343;-32.030;115.880;2022-08-11T05:49:10;102541.03;;;22.87;38.57
72370;BME280;60343;-32.030;115.880;2022-08-11T05:51:40;102532.81;;;22.47;40.34
72370;BME280;60343;-32.030;115.880;2022-08-11T05:54:09;102530.84;;;22.08;39.88
72370;BME280;60343;-32.030;115.880;2022-08-11T05:56:42;102528.88;;;21.82;40.38
72370;BME280;60343;-32.030;115.880;2022-08-11T05:59:15;102524.16;;;22.17;40.02
72370;BME280;60343;-32.030;115.880;2022-08-11T06:01:49;102519.16;;;22.41;40.53
72370;BME280;60343;-32.030;115.880;2022-08-11T06:04:19;102522.06;;;22.39;40.21
72370;BME280;60343;-32.030;115.880;2022-08-11T06:06:53;102523.94;;;22.06;39.70
72370;BME280;60343;-32.030;115.880;2022-08-11T06:09:28;102522.44;;;21.97;41.87
72370;BME280;60343;-32.030;115.880;2022-08-11T06:12:00;102525.88;;;21.71;41.01
72370;BME280;60343;-32.030;115.880;2022-08-11T06:14:29;102515.91;;;21.37;42.77
72370;BME280;60343;-32.030;115.880;2022-08-11T06:17:03;102524.06;;;21.09;42.39
72370;BME280;60343;-32.030;115.880;2022-08-11T06:19:34;102521.50;;;20.73;44.27
72370;BME280;60343;-32.030;115.880;2022-08-11T06:22:03;102513.69;;;21.19;42.90
72370;BME280;60343;-32.030;115.880;2022-08-11T06:24:32;102515.41;;;21.27;43.94
72370;BME280;60343;-32.030;115.880;2022-08-11T06:27:01;102513.34;;;21.01;44.60
72370;BME280;60343;-32.030;115.880;2022-08-11T06:29:31;102509.72;;;21.22;42.72
72370;BME280;60343;-32.030;115.880;2022-08-11T06:32:06;102512.22;;;21.58;42.73
72370;BME280;60343;-32.030;115.880;2022-08-11T06:34:45;102512.84;;;21.60;41.24
72370;BME280;60343;-32.030;115.880;2022-08-11T06:37:23;102509.50;;;21.64;41.19
72370;BME280;60343;-32.030;115.880;2022-08-11T06:40:04;102513.50;;;21.68;41.49
72370;BME280;60343;-32.030;115.880;2022-08-11T06:42:47;102509.38;;;21.31;42.16
72370;BME280;60343;-32.030;115.880;2022-08-11T06:45:26;102514.25;;;21.49;43.04
72370;BME280;60343;-32.030;115.880;2022-08-11T06:48:00;102518.31;;;21.73;43.78
72370;BME280;60343;-32.030;115.880;2022-08-11T06:50:29;102521.13;;;21.86;42.41
72370;BME280;60343;-32.030;115.880;2022-08-11T06:52:58;102513.09;;;21.78;40.45
72370;BME280;60343;-32.030;115.880;2022-08-11T06:55:28;102515.25;;;21.89;42.14
72370;BME280;60343;-32.030;115.880;2022-08-11T06:57:57;102508.09;;;21.88;41.36
72370;BME280;60343;-32.030;115.880;2022-08-11T07:00:26;102507.31;;;21.94;40.92
72370;BME280;60343;-32.030;115.880;2022-08-11T07:03:07;102502.13;;;22.12;41.66
72370;BME280;60343;-32.030;115.880;2022-08-11T07:05:44;102500.22;;;22.19;41.33
72370;BME280;60343;-32.030;115.880;2022-08-11T07:14:02;102497.94;;;22.95;39.00
72370;BME280;60343;-32.030;115.880;2022-08-11T07:16:31;102496.06;;;22.37;40.20
72370;BME280;60343;-32.030;115.880;2022-08-11T07:19:06;102502.44;;;21.90;41.03
72370;BME280;60343;-32.030;115.880;2022-08-11T07:21:35;102494.72;;;21.39;41.17
72370;BME280;60343;-32.030;115.880;2022-08-11T07:24:10;102492.31;;;21.70;40.39
72370;BME280;60343;-32.030;115.880;2022-08-11T07:26:42;102496.94;;;21.70;40.79
72370;BME280;60343;-32.030;115.880;2022-08-11T07:29:12;102484.38;;;21.28;42.37
72370;BME280;60343;-32.030;115.880;2022-08-11T07:31:44;102490.84;;;20.92;42.83
72370;BME280;60343;-32.030;115.880;2022-08-11T07:34:23;102497.50;;;20.83;43.65
72370;BME280;60343;-32.030;115.880;2022-08-11T07:36:54;102492.53;;;20.93;43.45
72370;BME280;60343;-32.030;115.880;2022-08-11T07:39:23;102490.72;;;20.73;43.54
72370;BME280;60343;-32.030;115.880;2022-08-11T07:41:53;102500.59;;;20.52;44.60
72370;BME280;60343;-32.030;115.880;2022-08-11T07:44:22;102493.56;;;20.16;45.81
72370;BME280;60343;-32.030;115.880;2022-08-11T07:46:52;102492.19;;;20.05;44.91
72370;BME280;60343;-32.030;115.880;2022-08-11T07:49:26;102501.00;;;19.86;46.36
72370;BME280;60343;-32.030;115.880;2022-08-11T07:51:55;102501.31;;;19.76;45.83
72370;BME280;60343;-32.030;115.880;2022-08-11T07:54:23;102498.22;;;19.64;46.63
72370;BME280;60343;-32.030;115.880;2022-08-11T07:56:51;102502.09;;;19.55;46.40
72370;BME280;60343;-32.030;115.880;2022-08-11T07:59:20;102497.81;;;19.46;47.15
72370;BME280;60343;-32.030;115.880;2022-08-11T08:01:49;102502.25;;;19.39;46.90
72370;BME280;60343;-32.030;115.880;2022-08-11T08:04:18;102488.97;;;19.29;46.72
72370;BME280;60343;-32.030;115.880;2022-08-11T08:06:51;102496.47;;;19.27;47.29
72370;BME280;60343;-32.030;115.880;2022-08-11T08:09:21;102498.53;;;19.40;47.16
72370;BME280;60343;-32.030;115.880;2022-08-11T08:11:49;102492.56;;;19.81;47.33
72370;BME280;60343;-32.030;115.880;2022-08-11T08:14:17;102493.06;;;20.27;46.25
72370;BME280;60343;-32.030;115.880;2022-08-11T08:16:45;102500.22;;;20.55;45.03
72370;BME280;60343;-32.030;115.880;2022-08-11T08:19:15;102486.59;;;20.77;43.76
72370;BME280;60343;-32.030;115.880;2022-08-11T08:21:49;102496.91;;;20.60;42.48
72370;BME280;60343;-32.030;115.880;2022-08-11T08:24:18;102495.47;;;20.92;42.41
72370;BME280;60343;-32.030;115.880;2022-08-11T08:26:50;102487.34;;;21.26;42.75
72370;BME280;60343;-32.030;115.880;2022-08-11T08:29:20;102496.91;;;21.57;41.03
72370;BME280;60343;-32.030;115.880;2022-08-11T08:31:48;102493.66;;;21.88;40.20
72370;BME280;60343;-32.030;115.880;2022-08-11T08:34:16;102496.06;;;22.37;39.73
72370;BME280;60343;-32.030;115.880;2022-08-11T08:36:51;102496.69;;;22.85;38.91
72370;BME280;60343;-32.030;115.880;2022-08-11T08:39:20;102494.34;;;23.01;38.36
72370;BME280;60343;-32.030;115.880;2022-08-11T08:41:50;102504.47;;;22.75;38.45
72370;BME280;60343;-32.030;115.880;2022-08-11T08:44:20;102500.25;;;21.59;41.58
72370;BME280;60343;-32.030;115.880;2022-08-11T08:46:50;102494.03;;;20.96;42.71
72370;BME280;60343;-32.030;115.880;2022-08-11T08:49:24;102502.31;;;20.32;44.93
72370;BME280;60343;-32.030;115.880;2022-08-11T08:52:00;102495.25;;;19.95;46.20
72370;BME280;60343;-32.030;115.880;2022-08-11T08:54:32;102498.84;;;20.02;51.15
72370;BME280;60343;-32.030;115.880;2022-08-11T08:57:02;102500.66;;;20.59;51.28
72370;BME280;60343;-32.030;115.880;2022-08-11T08:59:32;102497.88;;;21.08;49.88
72370;BME280;60343;-32.030;115.880;2022-08-11T09:02:03;102490.91;;;21.33;49.30
72370;BME280;60343;-32.030;115.880;2022-08-11T09:04:32;102490.06;;;21.26;49.85
72370;BME280;60343;-32.030;115.880;2022-08-11T09:07:07;102501.59;;;20.73;51.41
72370;BME280;60343;-32.030;115.880;2022-08-11T09:09:35;102503.44;;;20.02;53.57
72370;BME280;60343;-32.030;115.880;2022-08-11T09:12:04;102506.84;;;19.39;55.57
72370;BME280;60343;-32.030;115.880;2022-08-11T09:14:34;102515.19;;;19.08;55.79
72370;BME280;60343;-32.030;115.880;2022-08-11T09:17:02;102518.91;;;18.77;57.19
72370;BME280;60343;-32.030;115.880;2022-08-11T09:19:30;102513.63;;;18.61;57.25
72370;BME280;60343;-32.030;115.880;2022-08-11T09:21:58;102512.50;;;18.33;57.96
72370;BME280;60343;-32.030;115.880;2022-08-11T09:24:32;102510.69;;;18.02;58.77
72370;BME280;60343;-32.030;115.880;2022-08-11T09:27:04;102516.63;;;17.75;59.97
72370;BME280;60343;-32.030;115.880;2022-08-11T09:29:33;102517.00;;;17.64;60.18
72370;BME280;60343;-32.030;115.880;2022-08-11T09:32:01;102522.16;;;17.43;60.97
72370;BME280;60343;-32.030;115.880;2022-08-11T09:34:29;102528.88;;;17.47;61.30
72370;BME280;60343;-32.030;115.880;2022-08-11T09:36:59;102530.47;;;17.33;61.45
72370;BME280;60343;-32.030;115.880;2022-08-11T09:39:38;102523.25;;;17.17;62.08
72370;BME280;60343;-32.030;115.880;2022-08-11T09:42:09;102520.56;;;17.09;62.84
72370;BME280;60343;-32.030;115.880;2022-08-11T09:44:37;102531.91;;;16.97;63.45
72370;BME280;60343;-32.030;115.880;2022-08-11T09:47:06;102529.25;;;16.89;63.49
72370;BME280;60343;-32.030;115.880;2022-08-11T09:49:34;102532.47;;;16.76;63.71
72370;BME280;60343;-32.030;115.880;2022-08-11T09:52:04;102533.00;;;16.63;64.61
72370;BME280;60343;-32.030;115.880;2022-08-11T09:54:37;102530.59;;;16.52;64.48
72370;BME280;60343;-32.030;115.880;2022-08-11T09:57:06;102541.72;;;16.41;65.45
72370;BME280;60343;-32.030;115.880;2022-08-11T09:59:34;102545.59;;;16.30;65.48
72370;BME280;60343;-32.030;115.880;2022-08-11T10:02:02;102548.31;;;16.22;65.93
72370;BME280;60343;-32.030;115.880;2022-08-11T10:04:37;102545.59;;;16.14;66.13
72370;BME280;60343;-32.030;115.880;2022-08-11T10:07:06;102556.38;;;16.06;66.45
72370;BME280;60343;-32.030;115.880;2022-08-11T10:09:44;102549.41;;;15.87;66.86
72370;BME280;60343;-32.030;115.880;2022-08-11T10:12:20;102556.94;;;15.68;67.14
72370;BME280;60343;-32.030;115.880;2022-08-11T10:14:50;102560.09;;;15.55;67.48
72370;BME280;60343;-32.030;115.880;2022-08-11T10:17:20;102564.56;;;15.46;67.58
72370;BME280;60343;-32.030;115.880;2022-08-11T10:19:49;102574.66;;;15.36;68.17
72370;BME280;60343;-32.030;115.880;2022-08-11T10:22:19;102571.53;;;15.23;68.29
72370;BME280;60343;-32.030;115.880;2022-08-11T10:24:53;102566.34;;;15.04;69.01
72370;BME280;60343;-32.030;115.880;2022-08-11T10:27:23;102575.63;;;14.84;69.22
72370;BME280;60343;-32.030;115.880;2022-08-11T10:29:51;102576.06;;;14.71;69.92
72370;BME280;60343;-32.030;115.880;2022-08-11T10:32:20;102567.34;;;14.59;69.74
72370;BME280;60343;-32.030;115.880;2022-08-11T10:34:50;102573.69;;;14.50;70.28
72370;BME280;60343;-32.030;115.880;2022-08-11T10:37:20;102572.25;;;14.38;70.87
72370;BME280;60343;-32.030;115.880;2022-08-11T10:39:54;102581.78;;;14.50;72.73
72370;BME280;60343;-32.030;115.880;2022-08-11T10:42:23;102579.84;;;14.60;72.49
72370;BME280;60343;-32.030;115.880;2022-08-11T10:44:52;102577.47;;;14.57;71.43
72370;BME280;60343;-32.030;115.880;2022-08-11T10:47:21;102573.44;;;14.44;71.76
72370;BME280;60343;-32.030;115.880;2022-08-11T10:49:50;102582.88;;;14.30;72.98
72370;BME280;60343;-32.030;115.880;2022-08-11T10:52:19;102593.50;;;14.14;73.42
72370;BME280;60343;-32.030;115.880;2022-08-11T10:54:53;102596.16;;;13.96;73.50
72370;BME280;60343;-32.030;115.880;2022-08-11T10:57:22;102590.59;;;13.80;75.25
72370;BME280;60343;-32.030;115.880;2022-08-11T10:59:50;102603.38;;;13.78;74.90
72370;BME280;60343;-32.030;115.880;2022-08-11T11:02:19;102604.09;;;13.70;74.55
72370;BME280;60343;-32.030;115.880;2022-08-11T11:04:58;102599.88;;;13.58;75.13
72370;BME280;60343;-32.030;115.880;2022-08-11T11:07:35;102610.41;;;13.52;75.14
72370;BME280;60343;-32.030;115.880;2022-08-11T11:10:10;102616.50;;;13.44;75.03
72370;BME280;60343;-32.030;115.880;2022-08-11T11:13:04;102624.88;;;13.41;75.33
72370;BME280;60343;-32.030;115.880;2022-08-11T11:15:37;102630.09;;;13.52;76.08
72370;BME280;60343;-32.030;115.880;2022-08-11T11:18:21;102635.28;;;13.63;74.78
72370;BME280;60343;-32.030;115.880;2022-08-11T11:20:54;102633.16;;;13.67;74.14
72370;BME280;60343;-32.030;115.880;2022-08-11T11:23:36;102645.44;;;13.69;73.59
72370;BME280;60343;-32.030;115.880;2022-08-11T11:26:42;102639.44;;;13.58;73.10
72370;BME280;60343;-32.030;115.880;2022-08-11T11:29:48;102648.13;;;13.42;73.76
72370;BME280;60343;-32.030;115.880;2022-08-11T11:32:30;102636.25;;;13.25;73.91
72370;BME280;60343;-32.030;115.880;2022-08-11T11:35:35;102645.47;;;13.13;74.85
72370;BME280;60343;-32.030;115.880;2022-08-11T11:38:10;102644.31;;;13.06;74.64
72370;BME280;60343;-32.030;115.880;2022-08-11T11:40:59;102651.25;;;12.99;75.28
72370;BME280;60343;-32.030;115.880;2022-08-11T11:43:42;102658.78;;;12.96;75.34
72370;BME280;60343;-32.030;115.880;2022-08-11T11:46:12;102657.50;;;12.90;75.73
72370;BME280;60343;-32.030;115.880;2022-08-11T11:48:44;102655.38;;;12.84;75.52
72370;BME280;60343;-32.030;115.880;2022-08-11T11:51:16;102661.59;;;12.75;75.95
72370;BME280;60343;-32.030;115.880;2022-08-11T11:53:47;102658.47;;;12.70;76.19
72370;BME280;60343;-32.030;115.880;2022-08-11T11:56:28;102666.41;;;12.62;76.82
72370;BME280;60343;-32.030;115.880;2022-08-11T11:59:30;102667.81;;;12.56;76.14
72370;BME280;60343;-32.030;115.880;2022-08-11T12:02:03;102667.81;;;12.46;76.53
72370;BME280;60343;-32.030;115.880;2022-08-11T12:04:36;102659.44;;;12.40;76.99
72370;BME280;60343;-32.030;115.880;2022-08-11T12:07:06;102670.03;;;12.32;76.90
72370;BME280;60343;-32.030;115.880;2022-08-11T12:09:35;102673.53;;;12.23;77.12
72370;BME280;60343;-32.030;115.880;2022-08-11T12:18:05;102678.22;;;12.21;77.43
72370;BME280;60343;-32.030;115.880;2022-08-11T12:20:35;102677.41;;;12.49;76.36
72370;BME280;60343;-32.030;115.880;2022-08-11T12:23:05;102676.84;;;12.45;76.67
72370;BME280;60343;-32.030;115.880;2022-08-11T12:25:41;102676.44;;;12.50;76.69
72370;BME280;60343;-32.030;115.880;2022-08-11T12:28:22;102682.53;;;12.52;76.05
72370;BME280;60343;-32.030;115.880;2022-08-11T12:31:01;102674.03;;;12.47;76.36
72370;BME280;60343;-32.030;115.880;2022-08-11T12:33:38;102678.81;;;12.43;75.96
72370;BME280;60343;-32.030;115.880;2022-08-11T12:36:09;102675.13;;;12.35;76.48
72370;BME280;60343;-32.030;115.880;2022-08-11T12:38:39;102678.47;;;12.27;76.13
72370;BME280;60343;-32.030;115.880;2022-08-11T12:41:13;102683.69;;;12.19;76.50
72370;BME280;60343;-32.030;115.880;2022-08-11T12:43:44;102677.59;;;12.08;76.85
72370;BME280;60343;-32.030;115.880;2022-08-11T12:46:20;102670.22;;;12.00;76.92
72370;BME280;60343;-32.030;115.880;2022-08-11T12:51:54;102663.09;;;11.80;77.54
72370;BME280;60343;-32.030;115.880;2022-08-11T12:54:33;102664.72;;;11.71;77.99
72370;BME280;60343;-32.030;115.880;2022-08-11T12:57:19;102659.88;;;11.65;77.64
72370;BME280;60343;-32.030;115.880;2022-08-11T12:59:53;102657.19;;;11.65;77.78
72370;BME280;60343;-32.030;115.880;2022-08-11T13:02:38;102658.63;;;11.69;77.90
72370;BME280;60343;-32.030;115.880;2022-08-11T13:05:10;102667.41;;;11.71;78.21
72370;BME280;60343;-32.030;115.880;2022-08-11T13:08:00;102668.16;;;11.83;77.70
72370;BME280;60343;-32.030;115.880;2022-08-11T13:10:31;102663.84;;;11.91;77.70
72370;BME280;60343;-32.030;115.880;2022-08-11T13:13:08;102658.75;;;11.98;77.75
72370;BME280;60343;-32.030;115.880;2022-08-11T13:15:40;102658.91;;;11.96;77.37
72370;BME280;60343;-32.030;115.880;2022-08-11T13:18:13;102663.28;;;11.97;76.89
72370;BME280;60343;-32.030;115.880;2022-08-11T13:21:07;102661.44;;;11.98;76.66
72370;BME280;60343;-32.030;115.880;2022-08-11T13:23:57;102652.41;;;11.99;76.86
72370;BME280;60343;-32.030;115.880;2022-08-11T13:26:36;102656.25;;;11.96;76.84
72370;BME280;60343;-32.030;115.880;2022-08-11T13:29:08;102651.53;;;11.89;76.61
72370;BME280;60343;-32.030;115.880;2022-08-11T13:34:26;102650.19;;;11.74;77.24
72370;BME280;60343;-32.030;115.880;2022-08-11T13:37:05;102644.09;;;11.72;77.38
72370;BME280;60343;-32.030;115.880;2022-08-11T13:39:44;102650.69;;;11.68;77.46
72370;BME280;60343;-32.030;115.880;2022-08-11T13:42:42;102645.22;;;11.69;77.21
72370;BME280;60343;-32.030;115.880;2022-08-11T13:45:30;102642.03;;;11.75;77.37
72370;BME280;60343;-32.030;115.880;2022-08-11T13:47:59;102645.47;;;11.87;77.34
72370;BME280;60343;-32.030;115.880;2022-08-11T13:50:46;102639.13;;;11.97;77.03
72370;BME280;60343;-32.030;115.880;2022-08-11T13:59:07;102630.16;;;12.27;75.22
72370;BME280;60343;-32.030;115.880;2022-08-11T14:07:35;102633.09;;;12.15;75.44
72370;BME280;60343;-32.030;115.880;2022-08-11T14:13:05;102625.31;;;12.02;75.51
72370;BME280;60343;-32.030;115.880;2022-08-11T14:15:45;102626.44;;;11.99;75.84
72370;BME280;60343;-32.030;115.880;2022-08-11T14:18:19;102624.28;;;11.93;75.82
72370;BME280;60343;-32.030;115.880;2022-08-11T14:20:53;102610.84;;;11.84;76.20
72370;BME280;60343;-32.030;115.880;2022-08-11T14:23:26;102609.88;;;11.85;76.91
72370;BME280;60343;-32.030;115.880;2022-08-11T14:25:56;102611.03;;;11.92;76.00
72370;BME280;60343;-32.030;115.880;2022-08-11T14:28:25;102605.50;;;11.93;76.10
72370;BME280;60343;-32.030;115.880;2022-08-11T14:31:05;102607.75;;;11.88;75.69
72370;BME280;60343;-32.030;115.880;2022-08-11T14:33:35;102606.75;;;11.80;75.97
72370;BME280;60343;-32.030;115.880;2022-08-11T14:36:03;102608.84;;;11.76;76.37